createdAt,value
2019-03-10T00:00:32.961Z,100.00
2019-03-10T00:03:01.549Z,100.00
2019-03-10T00:05:30.118Z,100.00
2019-03-10T00:07:58.958Z,100.00
2019-03-10T00:10:28.008Z,100.00
2019-03-10T00:12:56.562Z,100.00
2019-03-10T00:15:25.176Z,100.00
2019-03-10T00:17:53.853Z,100.00
2019-03-10T00:20:22.507Z,100.00
2019-03-10T00:22:51.117Z,100.00
2019-03-10T00:25:19.785Z,100.00
2019-03-10T00:27:48.404Z,100.00
2019-03-10T00:30:18.221Z,100.00
2019-03-10T00:32:46.941Z,100.00
2019-03-10T00:35:15.475Z,100.00
2019-03-10T00:37:44.122Z,100.00
2019-03-10T00:40:30.664Z,100.00
2019-03-10T00:43:25.209Z,100.00
2019-03-10T00:46:13.275Z,100.00
2019-03-10T00:49:13.834Z,100.00
2019-03-10T00:52:01.730Z,100.00
2019-03-10T00:54:30.362Z,100.00
2019-03-10T00:56:58.986Z,100.00
2019-03-10T00:59:27.696Z,100.00
2019-03-10T01:01:56.290Z,100.00
2019-03-10T01:04:24.892Z,100.00
2019-03-10T01:06:53.825Z,100.00
2019-03-10T01:09:22.466Z,100.00
2019-03-10T01:11:51.483Z,100.00
2019-03-10T01:14:20.131Z,100.00
2019-03-10T01:16:48.650Z,100.00
2019-03-10T01:19:18.283Z,100.00
2019-03-10T01:21:48.456Z,100.00
2019-03-10T01:24:17.102Z,100.00
2019-03-10T01:26:45.773Z,100.00
2019-03-10T01:29:14.429Z,100.00
2019-03-10T01:31:52.103Z,100.00
2019-03-10T01:34:41.729Z,100.00
2019-03-10T01:37:10.265Z,100.00
2019-03-10T01:39:38.846Z,100.00
2019-03-10T01:42:07.536Z,100.00
2019-03-10T01:44:36.125Z,100.00
2019-03-10T01:47:04.670Z,100.00
2019-03-10T01:49:33.290Z,100.00
2019-03-10T01:52:01.850Z,100.00
2019-03-10T01:54:30.465Z,100.00
2019-03-10T01:56:59.015Z,100.00
2019-03-10T01:59:27.663Z,100.00
2019-03-10T02:01:56.181Z,100.00
2019-03-10T02:04:25.156Z,100.00
2019-03-10T02:06:53.665Z,100.00
2019-03-10T02:09:22.258Z,100.00
2019-03-10T02:11:50.845Z,100.00
2019-03-10T02:14:19.420Z,100.00
2019-03-10T02:16:47.922Z,100.00
2019-03-10T02:19:16.492Z,100.00
2019-03-10T02:21:45.075Z,100.00
2019-03-10T02:24:23.363Z,100.00
2019-03-10T02:26:43.829Z,100.00
2019-03-10T02:29:12.487Z,100.00
2019-03-10T02:31:41.042Z,100.00
2019-03-10T02:34:09.624Z,100.00
2019-03-10T02:36:38.192Z,100.00
2019-03-10T02:39:07.762Z,100.00
2019-03-10T02:41:36.346Z,100.00
2019-03-10T02:44:04.973Z,100.00
2019-03-10T02:46:33.820Z,100.00
2019-03-10T02:49:02.423Z,100.00
2019-03-10T02:51:31.234Z,100.00
2019-03-10T02:53:59.859Z,100.00
2019-03-10T02:56:28.390Z,100.00
2019-03-10T02:58:57.206Z,100.00
2019-03-10T03:01:25.822Z,100.00
2019-03-10T03:03:54.786Z,100.00
2019-03-10T03:06:23.369Z,100.00
2019-03-10T03:08:52.048Z,100.00
2019-03-10T03:11:20.612Z,100.00
2019-03-10T03:13:49.213Z,100.00
2019-03-10T03:16:17.833Z,100.00
2019-03-10T03:18:47.213Z,100.00
2019-03-10T03:21:16.171Z,100.00
2019-03-10T03:23:44.810Z,100.00
2019-03-10T03:26:13.364Z,100.00
2019-03-10T03:28:42.234Z,100.00
2019-03-10T03:31:10.840Z,100.00
2019-03-10T03:33:39.732Z,100.00
2019-03-10T03:36:14.461Z,100.00
2019-03-10T03:38:49.011Z,100.00
2019-03-10T03:41:20.671Z,100.00
2019-03-10T03:43:49.270Z,100.00
2019-03-10T03:46:17.818Z,100.00
2019-03-10T03:48:46.462Z,100.00
2019-03-10T03:51:15.084Z,100.00
2019-03-10T03:53:43.637Z,100.00
2019-03-10T03:56:12.240Z,100.00
2019-03-10T03:58:40.797Z,100.00
2019-03-10T04:01:16.505Z,100.00
2019-03-10T04:03:45.135Z,100.00
2019-03-10T04:06:13.737Z,100.00
2019-03-10T04:08:42.300Z,100.00
2019-03-10T04:11:10.914Z,100.00
2019-03-10T04:13:39.632Z,100.00
2019-03-10T04:16:25.611Z,100.00
2019-03-10T04:18:54.458Z,100.00
2019-03-10T04:21:22.987Z,100.00
2019-03-10T04:23:51.623Z,100.00
2019-03-10T04:26:20.233Z,100.00
2019-03-10T04:28:48.901Z,100.00
2019-03-10T04:31:17.463Z,100.00
2019-03-10T04:33:46.118Z,100.00
2019-03-10T04:36:14.623Z,100.00
2019-03-10T04:38:43.248Z,100.00
2019-03-10T04:41:12.223Z,100.00
2019-03-10T04:43:40.918Z,100.00
2019-03-10T04:46:10.924Z,100.00
2019-03-10T04:48:39.623Z,100.00
2019-03-10T04:51:08.182Z,100.00
2019-03-10T04:53:36.786Z,100.00
2019-03-10T04:56:10.031Z,100.00
2019-03-10T04:58:40.305Z,100.00
2019-03-10T05:01:08.868Z,100.00
2019-03-10T05:03:37.471Z,100.00
2019-03-10T05:06:05.964Z,100.00
2019-03-10T05:08:34.532Z,100.00
2019-03-10T05:11:03.093Z,100.00
2019-03-10T05:13:31.715Z,100.00
2019-03-10T05:16:00.230Z,100.00
2019-03-10T05:18:28.867Z,100.00
2019-03-10T05:20:57.400Z,100.00
2019-03-10T05:23:40.022Z,100.00
2019-03-10T05:26:08.923Z,100.00
2019-03-10T05:28:40.463Z,100.00
2019-03-10T05:31:09.155Z,100.00
2019-03-10T05:33:37.782Z,100.00
2019-03-10T05:36:06.462Z,100.00
2019-03-10T05:38:35.442Z,100.00
2019-03-10T05:41:04.103Z,100.00
2019-03-10T05:43:32.726Z,100.00
2019-03-10T05:46:01.311Z,100.00
2019-03-10T05:48:29.891Z,100.00
2019-03-10T05:50:58.480Z,100.00
2019-03-10T05:53:27.060Z,100.00
2019-03-10T05:55:55.730Z,100.00
2019-03-10T05:58:24.499Z,100.00
2019-03-10T06:00:53.119Z,100.00
2019-03-10T06:03:21.635Z,100.00
2019-03-10T06:05:50.261Z,100.00
2019-03-10T06:08:18.861Z,100.00
2019-03-10T06:10:47.535Z,100.00
2019-03-10T06:13:16.163Z,100.00
2019-03-10T06:15:44.747Z,100.00
2019-03-10T06:18:14.160Z,100.00
2019-03-10T06:20:43.078Z,100.00
2019-03-10T06:23:11.635Z,100.00
2019-03-10T06:25:40.263Z,100.00
2019-03-10T06:28:08.868Z,100.00
2019-03-10T06:30:37.442Z,100.00
2019-03-10T06:33:06.030Z,100.00
2019-03-10T06:35:34.594Z,100.00
2019-03-10T06:38:03.205Z,100.00
2019-03-10T06:40:32.644Z,100.00
2019-03-10T06:43:01.227Z,100.00
2019-03-10T06:45:29.888Z,100.00
2019-03-10T06:47:58.475Z,100.00
2019-03-10T06:50:27.121Z,100.00
2019-03-10T06:52:55.770Z,100.00
2019-03-10T06:55:24.317Z,100.00
2019-03-10T06:57:52.873Z,100.00
2019-03-10T07:00:21.478Z,100.00
2019-03-10T07:02:50.039Z,100.00
2019-03-10T07:05:18.652Z,100.00
2019-03-10T07:07:47.204Z,100.00
2019-03-10T07:10:16.485Z,100.00
2019-03-10T07:12:45.092Z,100.00
2019-03-10T07:15:14.461Z,100.00
2019-03-10T07:17:43.090Z,100.00
2019-03-10T07:20:18.011Z,100.00
2019-03-10T07:22:46.588Z,100.00
2019-03-10T07:25:15.181Z,100.00
2019-03-10T07:28:01.768Z,100.00
2019-03-10T07:30:35.082Z,100.00
2019-03-10T07:33:21.866Z,100.00
2019-03-10T07:35:52.131Z,100.00
2019-03-10T07:38:22.666Z,100.00
2019-03-10T07:40:58.834Z,100.00
2019-03-10T07:43:29.147Z,100.00
2019-03-10T07:45:59.329Z,100.00
2019-03-10T07:48:38.428Z,100.00
2019-03-10T07:51:08.713Z,100.00
2019-03-10T07:53:38.959Z,100.00
2019-03-10T07:56:11.386Z,100.00
2019-03-10T07:58:47.166Z,100.00
2019-03-10T08:01:20.070Z,100.00
2019-03-10T08:03:50.341Z,100.00
2019-03-10T08:06:29.126Z,100.00
2019-03-10T08:09:14.742Z,100.00
2019-03-10T08:11:50.065Z,100.00
2019-03-10T08:14:29.307Z,100.00
2019-03-10T08:17:08.321Z,100.00
2019-03-10T08:19:48.054Z,100.00
2019-03-10T08:22:18.256Z,99.78
2019-03-10T08:25:03.238Z,99.25
2019-03-10T08:27:45.476Z,97.79
2019-03-10T08:30:24.687Z,98.17
2019-03-10T08:32:55.157Z,96.24
2019-03-10T08:35:25.995Z,95.42
2019-03-10T08:37:59.803Z,95.74
2019-03-10T08:40:30.039Z,94.96
2019-03-10T08:43:19.488Z,91.79
2019-03-10T08:45:52.646Z,91.25
2019-03-10T08:48:25.947Z,91.92
2019-03-10T08:51:04.933Z,91.41
2019-03-10T08:53:35.239Z,89.34
2019-03-10T08:56:20.424Z,88.98
2019-03-10T08:58:53.475Z,89.19
2019-03-10T09:01:38.963Z,88.89
2019-03-10T09:04:11.985Z,87.21
2019-03-10T09:06:44.575Z,86.41
2019-03-10T09:09:25.911Z,87.02
2019-03-10T09:11:56.761Z,85.34
2019-03-10T09:14:29.939Z,85.25
2019-03-10T09:17:16.776Z,84.29
2019-03-10T09:19:49.451Z,83.99
2019-03-10T09:22:32.006Z,82.98
2019-03-10T09:25:22.348Z,82.44
2019-03-10T09:27:52.558Z,81.88
2019-03-10T09:30:22.790Z,82.26
2019-03-10T09:33:09.435Z,80.60
2019-03-10T09:35:45.812Z,82.26
2019-03-10T09:38:17.115Z,83.23
2019-03-10T09:40:50.584Z,83.10
2019-03-10T09:43:37.295Z,83.51
2019-03-10T09:46:23.636Z,82.56
2019-03-10T09:49:05.820Z,81.40
2019-03-10T09:51:36.193Z,82.36
2019-03-10T09:54:22.999Z,82.46
2019-03-10T09:56:55.162Z,83.12
2019-03-10T09:59:28.739Z,81.90
2019-03-10T10:01:58.947Z,81.44
2019-03-10T10:04:47.196Z,81.20
2019-03-10T10:07:29.305Z,81.00
2019-03-10T10:10:17.458Z,81.74
2019-03-10T10:12:52.805Z,83.92
2019-03-10T10:15:38.713Z,83.39
2019-03-10T10:18:14.373Z,83.87
2019-03-10T10:20:56.279Z,85.48
2019-03-10T10:23:35.420Z,85.74
2019-03-10T10:26:05.719Z,88.32
2019-03-10T10:28:44.682Z,88.40
2019-03-10T10:31:23.613Z,89.16
2019-03-10T10:33:59.705Z,91.51
2019-03-10T10:36:44.893Z,91.93
2019-03-10T10:39:20.835Z,92.70
2019-03-10T10:41:56.811Z,92.77
2019-03-10T10:44:27.387Z,92.77
2019-03-10T10:47:03.587Z,92.44
2019-03-10T10:49:33.809Z,94.70
2019-03-10T10:52:13.091Z,96.13
2019-03-10T10:55:00.036Z,95.32
2019-03-10T10:57:35.959Z,97.11
2019-03-10T11:00:21.217Z,95.69
2019-03-10T11:02:51.486Z,99.66
2019-03-10T11:05:22.019Z,98.93
2019-03-10T11:07:52.278Z,96.04
2019-03-10T11:10:25.190Z,95.02
2019-03-10T11:13:07.796Z,96.02
2019-03-10T11:15:45.724Z,95.37
2019-03-10T11:18:28.459Z,94.11
2019-03-10T11:21:07.633Z,86.57
2019-03-10T11:23:54.045Z,86.66
2019-03-10T11:26:36.723Z,86.78
2019-03-10T11:29:07.042Z,85.30
2019-03-10T11:31:52.007Z,82.95
2019-03-10T11:34:30.886Z,80.09
2019-03-10T11:37:10.277Z,81.55
2019-03-10T11:39:43.563Z,83.20
2019-03-10T11:42:14.253Z,82.97
2019-03-10T11:44:53.726Z,82.28
2019-03-10T11:47:25.270Z,78.05
2019-03-10T11:50:02.295Z,79.89
2019-03-10T11:52:33.557Z,80.48
2019-03-10T11:55:06.843Z,86.51
2019-03-10T11:57:46.198Z,86.21
2019-03-10T12:00:27.387Z,91.13
2019-03-10T12:03:06.666Z,94.27
2019-03-10T12:05:36.979Z,100.00
2019-03-10T12:08:12.910Z,98.07
2019-03-10T12:10:41.660Z,100.00
2019-03-10T12:13:10.186Z,100.00
2019-03-10T12:15:38.872Z,100.00
2019-03-10T12:18:07.860Z,100.00
2019-03-10T12:20:37.288Z,100.00
2019-03-10T12:23:05.850Z,100.00
2019-03-10T12:25:34.599Z,100.00
2019-03-10T12:28:03.679Z,100.00
2019-03-10T12:30:32.334Z,100.00
2019-03-10T12:33:00.901Z,100.00
2019-03-10T12:35:34.322Z,100.00
2019-03-10T12:37:59.898Z,100.00
2019-03-10T12:40:29.546Z,100.00
2019-03-10T12:42:58.246Z,100.00
2019-03-10T12:45:27.138Z,100.00
2019-03-10T12:47:55.925Z,100.00
2019-03-10T12:50:24.578Z,100.00
2019-03-10T12:52:53.243Z,100.00
2019-03-10T12:55:21.986Z,100.00
2019-03-10T12:57:51.051Z,100.00
2019-03-10T13:00:19.837Z,100.00
2019-03-10T13:02:48.672Z,100.00
2019-03-10T13:05:17.410Z,100.00
2019-03-10T13:07:45.958Z,100.00
2019-03-10T13:10:25.786Z,100.00
2019-03-10T13:12:54.522Z,100.00
2019-03-10T13:15:23.528Z,100.00
2019-03-10T13:17:52.434Z,100.00
2019-03-10T13:20:28.246Z,100.00
2019-03-10T13:22:51.300Z,100.00
2019-03-10T13:25:19.904Z,100.00
2019-03-10T13:27:48.762Z,100.00
2019-03-10T13:30:17.776Z,100.00
2019-03-10T13:32:46.675Z,100.00
2019-03-10T13:35:15.257Z,100.00
2019-03-10T13:37:43.919Z,100.00
2019-03-10T13:40:14.393Z,100.00
2019-03-10T13:42:43.139Z,100.00
2019-03-10T13:45:15.191Z,100.00
2019-03-10T13:47:43.918Z,100.00
2019-03-10T13:50:15.278Z,100.00
2019-03-10T13:52:43.959Z,100.00
2019-03-10T13:55:13.507Z,100.00
2019-03-10T13:57:43.495Z,100.00
2019-03-10T14:00:19.823Z,100.00
2019-03-10T14:02:49.137Z,100.00
2019-03-10T14:05:17.668Z,100.00
2019-03-10T14:07:47.750Z,100.00
2019-03-10T14:10:16.426Z,100.00
2019-03-10T14:12:45.410Z,100.00
2019-03-10T14:15:16.662Z,100.00
2019-03-10T14:17:45.235Z,100.00
2019-03-10T14:20:15.462Z,100.00
2019-03-10T14:22:44.593Z,100.00
2019-03-10T14:25:16.654Z,100.00
2019-03-10T14:27:45.665Z,100.00
2019-03-10T14:30:19.706Z,100.00
2019-03-10T14:32:49.175Z,100.00
2019-03-10T14:35:17.751Z,100.00
2019-03-10T14:37:46.525Z,100.00
2019-03-10T14:40:19.931Z,100.00
2019-03-10T14:42:48.631Z,100.00
2019-03-10T14:45:18.303Z,100.00
2019-03-10T14:47:47.238Z,100.00
2019-03-10T14:50:18.105Z,100.00
2019-03-10T14:52:47.164Z,100.00
2019-03-10T14:55:18.635Z,100.00
2019-03-10T14:57:47.557Z,100.00
2019-03-10T15:00:25.635Z,100.00
2019-03-10T15:02:54.814Z,100.00
2019-03-10T15:05:23.778Z,100.00
2019-03-10T15:07:54.903Z,100.00
2019-03-10T15:10:23.493Z,100.00
2019-03-10T15:12:52.270Z,100.00
2019-03-10T15:15:23.136Z,100.00
2019-03-10T15:17:51.979Z,100.00
2019-03-10T15:20:21.796Z,100.00
2019-03-10T15:22:51.081Z,100.00
2019-03-10T15:25:21.037Z,100.00
2019-03-10T15:27:49.759Z,100.00
2019-03-10T15:30:21.907Z,100.00
2019-03-10T15:32:55.307Z,100.00
2019-03-10T15:35:23.871Z,100.00
2019-03-10T15:37:53.027Z,100.00
2019-03-10T15:40:23.640Z,100.00
2019-03-10T15:42:52.965Z,100.00
2019-03-10T15:45:21.775Z,100.00
2019-03-10T15:47:50.335Z,100.00
2019-03-10T15:50:24.906Z,100.00
2019-03-10T15:52:54.486Z,100.00
2019-03-10T15:55:24.434Z,100.00
2019-03-10T15:57:53.476Z,100.00
2019-03-10T16:00:26.649Z,100.00
2019-03-10T16:02:55.819Z,100.00
2019-03-10T16:05:25.042Z,100.00
2019-03-10T16:07:53.770Z,100.00
2019-03-10T16:10:22.706Z,100.00
2019-03-10T16:12:51.327Z,100.00
2019-03-10T16:15:23.512Z,100.00
2019-03-10T16:17:52.130Z,100.00
2019-03-10T16:20:20.806Z,100.00
2019-03-10T16:22:49.267Z,100.00
2019-03-10T16:25:19.369Z,100.00
2019-03-10T16:27:49.887Z,100.00
2019-03-10T16:30:23.129Z,100.00
2019-03-10T16:32:53.041Z,100.00
2019-03-10T16:35:22.737Z,100.00
2019-03-10T16:37:52.173Z,100.00
2019-03-10T16:40:22.028Z,100.00
2019-03-10T16:42:51.092Z,100.00
2019-03-10T16:45:24.461Z,100.00
2019-03-10T16:47:53.930Z,100.00
2019-03-10T16:50:27.328Z,100.00
2019-03-10T16:52:56.985Z,100.00
2019-03-10T16:55:26.360Z,100.00
2019-03-10T16:57:55.065Z,100.00
2019-03-10T17:00:23.602Z,100.00
2019-03-10T17:02:53.147Z,100.00
2019-03-10T17:05:22.925Z,100.00
2019-03-10T17:07:51.750Z,100.00
2019-03-10T17:10:22.149Z,100.00
2019-03-10T17:12:51.185Z,100.00
2019-03-10T17:15:23.601Z,100.00
2019-03-10T17:17:52.283Z,100.00
2019-03-10T17:20:21.370Z,100.00
2019-03-10T17:22:50.741Z,100.00
2019-03-10T17:25:19.349Z,100.00
2019-03-10T17:27:48.965Z,100.00
2019-03-10T17:30:19.419Z,100.00
2019-03-10T17:32:49.210Z,100.00
2019-03-10T17:35:18.840Z,100.00
2019-03-10T17:37:49.463Z,100.00
2019-03-10T17:40:19.397Z,100.00
2019-03-10T17:42:48.156Z,100.00
2019-03-10T17:45:23.080Z,100.00
2019-03-10T17:47:51.858Z,100.00
2019-03-10T17:50:20.821Z,100.00
2019-03-10T17:52:50.392Z,100.00
2019-03-10T17:55:20.426Z,100.00
2019-03-10T17:57:48.998Z,100.00
2019-03-10T18:00:39.285Z,100.00
2019-03-10T18:03:08.020Z,100.00
2019-03-10T18:05:36.668Z,100.00
2019-03-10T18:08:05.453Z,100.00
2019-03-10T18:10:34.373Z,100.00
2019-03-10T18:13:03.050Z,100.00
2019-03-10T18:15:32.390Z,100.00
2019-03-10T18:18:01.655Z,100.00
2019-03-10T18:20:33.542Z,100.00
2019-03-10T18:23:03.205Z,100.00
2019-03-10T18:25:33.271Z,100.00
2019-03-10T18:28:02.771Z,100.00
2019-03-10T18:30:31.909Z,100.00
2019-03-10T18:33:00.734Z,100.00
2019-03-10T18:35:30.489Z,100.00
2019-03-10T18:37:59.071Z,100.00
2019-03-10T18:40:29.106Z,100.00
2019-03-10T18:42:58.513Z,100.00
2019-03-10T18:45:28.153Z,100.00
2019-03-10T18:48:04.440Z,100.00
2019-03-10T18:50:33.354Z,100.00
2019-03-10T18:53:02.114Z,100.00
2019-03-10T18:55:32.088Z,100.00
2019-03-10T18:58:01.060Z,100.00
2019-03-10T19:00:31.554Z,100.00
2019-03-10T19:03:00.312Z,100.00
2019-03-10T19:05:28.926Z,100.00
2019-03-10T19:07:58.039Z,100.00
2019-03-10T19:10:26.823Z,100.00
2019-03-10T19:12:55.620Z,100.00
2019-03-10T19:15:28.143Z,100.00
2019-03-10T19:17:56.812Z,100.00
2019-03-10T19:20:25.526Z,100.00
2019-03-10T19:22:54.347Z,100.00
2019-03-10T19:25:25.356Z,100.00
2019-03-10T19:27:56.201Z,100.00
2019-03-10T19:30:25.369Z,100.00
2019-03-10T19:32:54.525Z,100.00
2019-03-10T19:35:23.111Z,100.00
2019-03-10T19:37:51.869Z,100.00
2019-03-10T19:40:22.856Z,100.00
2019-03-10T19:42:51.583Z,100.00
2019-03-10T19:45:22.852Z,100.00
2019-03-10T19:47:51.611Z,100.00
2019-03-10T19:50:27.219Z,100.00
2019-03-10T19:52:56.370Z,100.00
2019-03-10T19:55:24.933Z,100.00
2019-03-10T19:57:53.925Z,100.00
2019-03-10T20:00:23.172Z,100.00
2019-03-10T20:02:51.812Z,100.00
2019-03-10T20:05:20.409Z,100.00
2019-03-10T20:07:49.498Z,100.00
2019-03-10T20:10:19.382Z,100.00
2019-03-10T20:12:49.290Z,100.00
2019-03-10T20:15:25.344Z,100.00
2019-03-10T20:17:58.521Z,100.00
2019-03-10T20:20:32.727Z,100.00
2019-03-10T20:23:01.563Z,100.00
2019-03-10T20:25:30.681Z,100.00
2019-03-10T20:27:59.306Z,100.00
2019-03-10T20:30:28.355Z,100.00
2019-03-10T20:32:57.040Z,100.00
2019-03-10T20:35:26.035Z,100.00
2019-03-10T20:37:54.658Z,100.00
2019-03-10T20:40:28.334Z,100.00
2019-03-10T20:42:59.483Z,100.00
2019-03-10T20:45:28.118Z,100.00
2019-03-10T20:47:57.046Z,100.00
2019-03-10T20:50:25.803Z,100.00
2019-03-10T20:52:54.414Z,100.00
2019-03-10T20:55:23.039Z,100.00
2019-03-10T20:57:51.613Z,100.00
2019-03-10T21:00:23.492Z,100.00
2019-03-10T21:02:52.466Z,100.00
2019-03-10T21:05:21.525Z,100.00
2019-03-10T21:07:50.646Z,100.00
2019-03-10T21:10:21.692Z,100.00
2019-03-10T21:12:50.768Z,100.00
2019-03-10T21:15:20.728Z,100.00
2019-03-10T21:17:49.228Z,100.00
2019-03-10T21:20:21.226Z,100.00
2019-03-10T21:22:49.807Z,100.00
2019-03-10T21:25:26.581Z,100.00
2019-03-10T21:27:55.468Z,100.00
2019-03-10T21:30:32.383Z,100.00
2019-03-10T21:33:01.079Z,100.00
2019-03-10T21:35:29.631Z,100.00
2019-03-10T21:37:58.532Z,100.00
2019-03-10T21:40:30.990Z,100.00
2019-03-10T21:42:59.742Z,100.00
2019-03-10T21:45:28.255Z,100.00
2019-03-10T21:47:56.875Z,100.00
2019-03-10T21:50:25.449Z,100.00
2019-03-10T21:52:54.604Z,100.00
2019-03-10T21:55:23.339Z,100.00
2019-03-10T21:57:51.927Z,100.00
2019-03-10T22:00:21.078Z,100.00
2019-03-10T22:02:49.759Z,100.00
2019-03-10T22:05:18.754Z,100.00
2019-03-10T22:07:47.657Z,100.00
2019-03-10T22:10:27.163Z,100.00
2019-03-10T22:12:48.394Z,100.00
2019-03-10T22:15:19.079Z,100.00
2019-03-10T22:17:47.712Z,100.00
2019-03-10T22:20:18.232Z,100.00
2019-03-10T22:22:49.645Z,100.00
2019-03-10T22:25:17.731Z,100.00
2019-03-10T22:27:46.618Z,100.00
2019-03-10T22:30:22.727Z,100.00
2019-03-10T22:32:51.300Z,100.00
2019-03-10T22:35:20.113Z,100.00
2019-03-10T22:37:49.384Z,100.00
2019-03-10T22:40:18.454Z,100.00
2019-03-10T22:42:47.131Z,100.00
2019-03-10T22:45:19.677Z,100.00
2019-03-10T22:47:48.565Z,100.00
2019-03-10T22:50:17.428Z,100.00
2019-03-10T22:52:46.528Z,100.00
2019-03-10T22:55:16.086Z,100.00
2019-03-10T22:57:44.698Z,100.00
2019-03-10T23:00:25.942Z,100.00
2019-03-10T23:02:54.594Z,100.00
2019-03-10T23:05:23.254Z,100.00
2019-03-10T23:07:51.889Z,100.00
2019-03-10T23:10:20.797Z,100.00
2019-03-10T23:12:49.300Z,100.00
2019-03-10T23:15:17.848Z,100.00
2019-03-10T23:17:46.399Z,100.00
2019-03-10T23:20:16.788Z,100.00
2019-03-10T23:22:45.350Z,100.00
2019-03-10T23:25:14.216Z,100.00
2019-03-10T23:27:43.305Z,100.00
2019-03-10T23:30:14.725Z,100.00
2019-03-10T23:32:43.263Z,100.00
2019-03-10T23:35:11.805Z,100.00
2019-03-10T23:37:40.433Z,100.00
2019-03-10T23:40:14.149Z,100.00
2019-03-10T23:42:43.125Z,100.00
2019-03-10T23:45:14.118Z,100.00
2019-03-10T23:47:42.739Z,100.00
2019-03-10T23:50:13.085Z,100.00
2019-03-10T23:52:41.719Z,100.00
2019-03-10T23:55:12.459Z,100.00
2019-03-10T23:57:41.040Z,100.00
